Ipora, Brazil
Current Conditions -  °F | °C
As of 8:00 AM on Friday 31 Oct 2014 (Local Time) from SBGO Reporting Station
Broken Clouds Broken Clouds  
Wind Chill: 70°   Ceiling: 9000
Heat Index: 70°   Visibility: 6mi
Dew Point: 63°   Wind: 2mph
Humidity: 78%   Direction: NA
Pressure: 30.03"   Gusts: NA
Location:  16.44°S, 51.12°W
Report Text: SBGO 311000Z VRB02KT 9999 FEW035 BKN090 21/17 Q1017
Loading
Personal Weather Stations






























Interactive Weather Map
Tropical Storm Tracking
New forecast layout! Learn more

10-Day Weather Forecast

Advertisements
Track Severe Weather on mobile